Aérodrome :
LOGIN :

S'inscrire | Disclaimer

   EN    FR    IT 

 










Légende :    VFR   VFR Marginal   IFR   IFR Intensif   IFR Très Intensif
Visi : 
Plafond : 
>= 8 km
>= 3000ft
5 à 8 km
1000 à 3000 ft
1500m à 5 km
500 à 1000 ft
800 à 1500m
200 à 500 ft
< 800m
< 200 ft
Symboles :   Orages  Brouillard  Fortes neiges  Fortes précipitations  Vent > 20 kt
SIGMETs :   Divers  Orages  Givrage  Turbulence  Onde Orograph.  Cendres Volcan.







- Altitude de l'aérodrome : 209 ft
- Code IATA : CLY
- Voir les cartes d'approche


LFKC - Calvi

DERNIER METAR :
  • 150930Z AUTO 24007KT 210V310 5000 1700 +RA BR FEW016 BKN025 BKN034 13/10 Q1003 TEMPO SCT015 BKN025 FEW030TCU BECMG 20015G25KT

METARs EXPIRÉS :
  • 150900Z AUTO 23006KT 4900 -RA BR FEW020/// BKN029/// BKN035/// ///TCU 13/11 Q1003 BECMG 20015G25KT 9999 NSW
  • 150830Z AUTO 25006KT 210V290 9999 -RA FEW030 BKN039 BKN050 13/10 Q1003 TEMPO SHRA SCT015 BKN025 FEW030TCU BECMG 20015G25KT
  • 150800Z AUTO 22009KT 180V240 9999 FEW029 BKN046 OVC056 14/09 Q1003 TEMPO SHRA SCT015 BKN025 FEW030TCU BECMG 20015G25KT
  • 150730Z AUTO 21014KT 180V240 9999 SCT034 BKN052 BKN068 14/10 Q1003 TEMPO SHRA SCT015 BKN025 FEW030TCU BECMG 20015G25KT
  • 150700Z AUTO 22012KT 190V250 9999 FEW034 BKN049 BKN060 15/09 Q1003 TEMPO SHRA SCT015 BKN025 FEW030TCU BECMG 20015G25KT

TAF TAF LFKC
Valide du 15 à 09h jusqu'au 16 à 09h UTC


150800Z 1509/1609 20015G25KT 9999 SCT030 BKN040 BKN080
TEMPO 1509/1515 SHRA SCT015 BKN025 FEW030TCU
TEMPO 1606/1609 SHRA SCT015 BKN025 FEW030TCU TX16/1513Z TN09/1606Z
ATIS : +33 4 95 65 82 49
Pas de NOTAMs connus pour ce terrain.
1 SIGMET publié pour la FIR Marseille (LFMM) :
 
Turbulence forte
LFMM SIGMET 2 VALID 150700/151000 LFPW
LFMM MARSEILLE FIR/UIR SEV TURB OBS WI N4630 E00700 - N4430 E00700 - N4415 E00415 - N4545 E00415 - N4630 E00700 FL180/390 MOV SE 25KT NC=



MET'MAP, la Météo Aéronautique d'un coup d'oeil ! - Copyright ORBIFLY Décembre 2007 - Disclaimer

ORBIFLY MET'MAP TEAM :

Programmation & Développement : Alexandra Zaïnal
Conception & Développement : Baudouin d'Aumeries
Co-Programmation & Développement : Marc-Olivier Méhu
Soutien technique & logistique : Manuel Goepfert

Contact : metmap@orbifly.com




SOURCES & CREDITS :

   NOAA